Airfield :







YOU CAN JOIN US ON...

 
LOGIN :

Register | Disclaimer

   EN    FR    IT 

 









Legend :    VFR   Marginal VFR   IFR   Intensive IFR   Very Intensive IFR
Visi :
Ceiling :
>= 8 km
>= 3000ft
5 to 8 km
1000 to 3000 ft
1500m to 5 km
500 to 1000 ft
800 to 1500m
200 to 500 ft
< 800m
< 200 ft
Symbols :   Thunderstorms  Fog  Heavy snow  Heavy precipitations  Wind > 20 kt






- Airport Elevation : 122 ft
- IATA code : YTQ


CYTQ - Tasiujaq

CURRENT METAR :
  • 082000Z 17023G30KT 1SM -SN BLSN OVC033 M13/M15 A2927 RMK BLSN1SC7 PRESFR SLP917

EXPIRED METARs :
  • 081944Z 17020G28KT 3/4SM -SN BLSN OVC033 M13/M15 A2929 RMK BLSN1SC7 SLP924
  • 081900Z 17018G23KT 2SM -SN DRSN OVC035 M13/M16 A2932 RMK SC8 SLP933
  • 081819Z 17016G26KT 1 3/4SM -SN DRSN OVC032 M13/M16 A2935 RMK SC8 SLP946

TAF AMD TAF CYTQ
Valid from the 08 at 19:00 until the 08 at 22:00 UTC


081956Z 0819/0822 19015G25KT 3/4SM -SN BLSN OVC012
TEMPO 0819/0822 6SM -SN OVC025 RMK NXT FCST WILL BE ISSUED AT 091445Z



MET'MAP, your aeronautical weather chart ! - Copyright ORBIFLY December 2007 - Disclaimer

ORBIFLY MET'MAP TEAM :

Programming & Development : Alexandra Zaïnal
Concept & original design : Baudouin d'Aumeries
Assistance for programming : Marc-Olivier Méhu
Technical & hardware support : Manuel Goepfert

Contact : metmap@orbifly.com




SOURCES & CREDITS :

   NOAA